createdAt,value
2023-05-09T00:02:02.386Z,3.97
2023-05-09T00:04:32.916Z,4.03
2023-05-09T00:07:00.816Z,4.07
2023-05-09T00:09:28.703Z,4.22
2023-05-09T00:12:02.892Z,3.75
2023-05-09T00:14:30.996Z,4.15
2023-05-09T00:17:00.021Z,4.20
2023-05-09T00:19:31.019Z,4.97
2023-05-09T00:21:58.906Z,4.30
2023-05-09T00:24:26.826Z,4.55
2023-05-09T00:26:54.700Z,4.03
2023-05-09T00:29:26.601Z,4.45
2023-05-09T00:31:54.636Z,5.03
2023-05-09T00:34:22.583Z,5.38
2023-05-09T00:36:50.803Z,4.40
2023-05-09T00:39:18.668Z,5.35
2023-05-09T00:41:46.549Z,4.18
2023-05-09T00:44:14.413Z,4.53
2023-05-09T00:46:42.164Z,4.80
2023-05-09T00:49:10.055Z,3.88
2023-05-09T00:51:39.224Z,5.28
2023-05-09T00:54:09.188Z,5.07
2023-05-09T00:56:37.844Z,5.47
2023-05-09T00:59:06.701Z,7.28
2023-05-09T01:01:34.506Z,4.78
2023-05-09T01:04:02.378Z,4.68
2023-05-09T01:06:39.879Z,5.97
2023-05-09T01:09:12.090Z,5.18
2023-05-09T01:11:49.581Z,5.63
2023-05-09T01:14:31.037Z,6.20
2023-05-09T01:17:14.112Z,6.57
2023-05-09T01:19:57.758Z,7.07
2023-05-09T01:22:32.095Z,6.85
2023-05-09T01:25:19.774Z,5.40
2023-05-09T01:28:11.684Z,4.35
2023-05-09T01:30:45.488Z,4.65
2023-05-09T01:33:18.271Z,4.65
2023-05-09T01:35:52.756Z,4.07
2023-05-09T01:38:22.442Z,4.10
2023-05-09T01:40:53.445Z,5.00
2023-05-09T01:43:23.285Z,4.80
2023-05-09T01:45:52.257Z,4.43
2023-05-09T01:48:21.831Z,3.90
2023-05-09T01:50:49.627Z,4.70
2023-05-09T01:53:18.026Z,4.38
2023-05-09T01:55:47.230Z,4.13
2023-05-09T01:58:16.422Z,4.32
2023-05-09T02:00:45.448Z,4.47
2023-05-09T02:03:13.730Z,4.80
2023-05-09T02:05:42.302Z,4.40
2023-05-09T02:08:10.476Z,4.55
2023-05-09T02:10:38.368Z,4.90
2023-05-09T02:13:07.302Z,3.90
2023-05-09T02:15:35.236Z,4.93
2023-05-09T02:18:03.390Z,4.75
2023-05-09T02:20:33.508Z,5.22
2023-05-09T02:23:01.416Z,5.95
2023-05-09T02:25:29.307Z,6.28
2023-05-09T02:28:01.127Z,4.68
2023-05-09T02:30:33.092Z,6.03
2023-05-09T02:33:04.324Z,4.63
2023-05-09T02:35:32.472Z,6.38
2023-05-09T02:38:01.004Z,6.75
2023-05-09T02:40:31.040Z,5.32
2023-05-09T02:42:59.005Z,6.40
2023-05-09T02:45:26.914Z,6.88
2023-05-09T02:47:54.853Z,6.55
2023-05-09T02:50:23.838Z,6.68
2023-05-09T02:52:51.594Z,6.60
2023-05-09T02:55:19.441Z,6.38
2023-05-09T02:57:51.981Z,6.43
2023-05-09T03:00:29.571Z,6.75
2023-05-09T03:02:57.514Z,7.50
2023-05-09T03:05:25.360Z,6.88
2023-05-09T03:07:53.322Z,7.55
2023-05-09T03:10:21.191Z,6.80
2023-05-09T03:12:49.258Z,7.57
2023-05-09T03:15:20.999Z,6.80
2023-05-09T03:17:53.291Z,7.13
2023-05-09T03:20:22.788Z,6.55
2023-05-09T03:22:50.845Z,6.88
2023-05-09T03:25:18.801Z,7.55
2023-05-09T03:27:48.533Z,8.05
2023-05-09T03:30:17.419Z,7.72
2023-05-09T03:32:48.050Z,7.80
2023-05-09T03:35:16.398Z,8.18
2023-05-09T03:37:44.573Z,7.82
2023-05-09T03:40:12.566Z,7.38
2023-05-09T03:42:59.023Z,6.53
2023-05-09T03:45:27.150Z,7.15
2023-05-09T03:47:55.019Z,7.18
2023-05-09T03:50:22.964Z,7.25
2023-05-09T03:52:52.042Z,7.35
2023-05-09T03:55:19.975Z,8.18
2023-05-09T03:57:47.823Z,7.57
2023-05-09T04:00:16.011Z,8.65
2023-05-09T04:02:51.671Z,9.50
2023-05-09T04:05:29.811Z,8.55
2023-05-09T04:08:01.363Z,7.85
2023-05-09T04:10:30.560Z,9.13
2023-05-09T04:12:58.738Z,7.80
2023-05-09T04:15:26.890Z,8.68
2023-05-09T04:17:55.634Z,8.55
2023-05-09T04:20:23.624Z,8.60
2023-05-09T04:22:51.567Z,6.68
2023-05-09T04:25:21.354Z,6.45
2023-05-09T04:27:49.650Z,5.50
2023-05-09T04:30:17.773Z,5.80
2023-05-09T04:32:49.130Z,5.45
2023-05-09T04:35:20.358Z,4.95
2023-05-09T04:37:49.892Z,4.88
2023-05-09T04:40:18.464Z,5.35
2023-05-09T04:43:01.329Z,4.10
2023-05-09T04:45:32.028Z,4.85
2023-05-09T04:48:04.351Z,4.15
2023-05-09T04:50:32.495Z,4.03
2023-05-09T04:53:03.358Z,4.32
2023-05-09T04:55:31.490Z,4.95
2023-05-09T04:58:00.324Z,4.97
2023-05-09T05:00:28.126Z,5.70
2023-05-09T05:02:56.312Z,5.80
2023-05-09T05:05:27.002Z,6.22
2023-05-09T05:07:55.888Z,5.35
2023-05-09T05:10:29.357Z,6.03
2023-05-09T05:13:04.397Z,3.78
2023-05-09T05:15:32.315Z,4.57
2023-05-09T05:18:00.496Z,4.60
2023-05-09T05:20:34.563Z,4.45
2023-05-09T05:23:02.847Z,3.28
2023-05-09T05:25:31.367Z,3.38
2023-05-09T05:28:01.320Z,3.47
2023-05-09T05:30:29.339Z,2.63
2023-05-09T05:32:57.286Z,2.10
2023-05-09T05:35:28.422Z,2.88
2023-05-09T05:37:56.847Z,3.58
2023-05-09T05:40:25.336Z,2.17
2023-05-09T05:42:54.673Z,3.45
2023-05-09T05:45:23.359Z,3.22
2023-05-09T05:47:54.654Z,1.92
2023-05-09T05:50:25.117Z,1.08
2023-05-09T05:52:54.085Z,1.42
2023-05-09T05:55:22.035Z,1.75
2023-05-09T05:57:49.845Z,2.28
2023-05-09T06:00:17.945Z,4.05
2023-05-09T06:02:50.029Z,4.78
2023-05-09T06:05:29.474Z,4.82
2023-05-09T06:07:57.486Z,5.03
2023-05-09T06:10:25.461Z,4.05
2023-05-09T06:12:53.369Z,3.70
2023-05-09T06:15:21.291Z,2.90
2023-05-09T06:17:51.494Z,2.90
2023-05-09T06:20:19.655Z,2.88
2023-05-09T06:22:50.591Z,1.70
2023-05-09T06:25:22.695Z,2.40
2023-05-09T06:27:51.589Z,1.67
2023-05-09T06:30:26.187Z,1.65
2023-05-09T06:32:55.714Z,1.80
2023-05-09T06:35:23.851Z,1.55
2023-05-09T06:37:51.688Z,1.50
2023-05-09T06:40:21.070Z,1.95
2023-05-09T06:42:48.943Z,1.90
2023-05-09T06:45:17.476Z,1.80
2023-05-09T06:47:45.640Z,1.70
2023-05-09T06:50:13.534Z,2.50
2023-05-09T06:52:41.327Z,2.30
2023-05-09T06:55:15.343Z,2.45
2023-05-09T06:57:46.305Z,3.08
2023-05-09T07:00:15.009Z,2.10
2023-05-09T07:02:43.380Z,1.58
2023-05-09T07:05:13.801Z,1.17
2023-05-09T07:07:41.890Z,1.70
2023-05-09T07:10:11.923Z,1.27
2023-05-09T07:12:41.622Z,1.77
2023-05-09T07:15:10.222Z,1.63
2023-05-09T07:17:41.020Z,1.40
2023-05-09T07:20:09.401Z,1.00
2023-05-09T07:22:37.924Z,1.13
2023-05-09T07:25:08.766Z,1.05
2023-05-09T07:27:37.110Z,1.52
2023-05-09T07:30:05.910Z,1.40
2023-05-09T07:32:35.616Z,1.70
2023-05-09T07:35:03.460Z,1.27
2023-05-09T07:37:35.025Z,1.08
2023-05-09T07:40:03.555Z,1.42
2023-05-09T07:42:33.668Z,1.10
2023-05-09T07:45:25.937Z,1.20
2023-05-09T07:47:53.814Z,1.30
2023-05-09T07:50:23.284Z,1.42
2023-05-09T07:52:52.085Z,1.30
2023-05-09T07:55:19.888Z,1.10
2023-05-09T07:57:48.327Z,1.23
2023-05-09T08:00:16.668Z,1.40
2023-05-09T08:02:44.575Z,1.30
2023-05-09T08:05:13.884Z,1.30
2023-05-09T08:07:41.997Z,1.23
2023-05-09T08:10:10.277Z,1.17
2023-05-09T08:12:38.221Z,1.40
2023-05-09T08:15:06.743Z,1.20
2023-05-09T08:17:35.270Z,1.00
2023-05-09T08:20:05.692Z,1.58
2023-05-09T08:22:34.286Z,2.10
2023-05-09T08:25:02.367Z,1.30
2023-05-09T08:27:32.004Z,1.40
2023-05-09T08:30:02.866Z,1.35
2023-05-09T08:32:33.678Z,1.90
2023-05-09T08:35:01.633Z,1.25
2023-05-09T08:37:31.932Z,1.45
2023-05-09T08:39:59.791Z,1.73
2023-05-09T08:42:28.430Z,1.50
2023-05-09T08:44:56.214Z,1.92
2023-05-09T08:47:24.707Z,1.90
2023-05-09T08:49:52.798Z,1.90
2023-05-09T08:52:21.268Z,1.60
2023-05-09T08:54:49.395Z,1.80
2023-05-09T08:57:17.347Z,1.65
2023-05-09T08:59:46.610Z,1.30
2023-05-09T09:02:15.003Z,1.60
2023-05-09T09:04:43.159Z,1.33
2023-05-09T09:07:11.406Z,1.67
2023-05-09T09:09:45.100Z,1.63
2023-05-09T09:12:15.793Z,1.85
2023-05-09T09:14:49.232Z,1.60
2023-05-09T09:17:19.896Z,1.55
2023-05-09T09:19:50.165Z,1.80
2023-05-09T09:22:19.942Z,1.70
2023-05-09T09:24:47.974Z,1.70
2023-05-09T09:27:19.433Z,1.63
2023-05-09T09:29:47.215Z,1.67
2023-05-09T09:32:15.183Z,1.30
2023-05-09T09:34:43.130Z,1.10
2023-05-09T09:37:22.529Z,1.23
2023-05-09T09:39:57.173Z,1.17
2023-05-09T09:42:25.052Z,1.20
2023-05-09T09:45:25.588Z,6.30
2023-05-09T09:47:54.685Z,1.40
2023-05-09T09:50:25.818Z,1.10
2023-05-09T09:52:56.120Z,6.47
2023-05-09T09:55:25.085Z,1.48
2023-05-09T09:57:53.040Z,2.20
2023-05-09T10:00:27.482Z,1.38
2023-05-09T10:02:57.449Z,6.13
2023-05-09T10:05:30.329Z,1.42
2023-05-09T10:07:59.886Z,1.40
2023-05-09T10:10:29.732Z,1.48
2023-05-09T10:12:59.749Z,1.38
2023-05-09T10:15:33.473Z,1.50
2023-05-09T10:18:08.716Z,1.70
2023-05-09T10:20:39.551Z,1.20
2023-05-09T10:23:07.728Z,1.55
2023-05-09T10:25:41.010Z,1.50
2023-05-09T10:28:13.877Z,1.60
2023-05-09T10:30:51.635Z,1.45
2023-05-09T10:33:24.876Z,1.55
2023-05-09T10:35:52.915Z,1.88
2023-05-09T10:38:20.744Z,1.65
2023-05-09T10:40:48.911Z,1.25
2023-05-09T10:43:16.894Z,1.40
2023-05-09T10:45:45.373Z,4.35
2023-05-09T10:48:14.011Z,1.60
2023-05-09T10:50:42.764Z,1.00
2023-05-09T10:53:21.797Z,1.02
2023-05-09T10:55:56.748Z,1.20
2023-05-09T10:58:33.621Z,1.27
2023-05-09T11:01:02.678Z,1.23
2023-05-09T11:03:57.250Z,1.25
2023-05-09T11:06:47.849Z,1.50
2023-05-09T11:09:40.101Z,1.50
2023-05-09T11:12:12.661Z,1.10
2023-05-09T11:14:43.172Z,1.40
2023-05-09T11:17:23.120Z,1.50
2023-05-09T11:19:51.509Z,1.55
2023-05-09T11:22:24.753Z,1.50
2023-05-09T11:25:06.709Z,1.38
2023-05-09T11:27:49.718Z,1.30
2023-05-09T11:30:19.720Z,1.38
2023-05-09T11:32:51.356Z,1.48
2023-05-09T11:35:21.074Z,1.50
2023-05-09T11:38:03.268Z,1.40
2023-05-09T11:40:32.207Z,1.20
2023-05-09T11:43:01.298Z,1.55
2023-05-09T11:45:32.527Z,1.85
2023-05-09T11:48:08.408Z,1.30
2023-05-09T11:50:36.363Z,1.50
2023-05-09T11:53:04.464Z,1.50
2023-05-09T11:55:32.879Z,1.40
2023-05-09T11:58:00.950Z,1.23
2023-05-09T12:00:28.895Z,1.17
2023-05-09T12:02:57.051Z,0.98
2023-05-09T12:05:25.163Z,1.25
2023-05-09T12:07:53.058Z,1.40
2023-05-09T12:10:23.178Z,1.33
2023-05-09T12:12:55.583Z,1.20
2023-05-09T12:15:24.791Z,1.27
2023-05-09T12:18:10.871Z,1.38
2023-05-09T12:20:48.247Z,1.48
2023-05-09T12:23:16.826Z,1.35
2023-05-09T12:25:54.163Z,1.40
2023-05-09T12:28:26.032Z,1.88
2023-05-09T12:30:54.560Z,1.75
2023-05-09T12:33:22.719Z,1.50
2023-05-09T12:36:11.350Z,2.28
2023-05-09T12:38:40.000Z,1.38
2023-05-09T12:41:15.482Z,1.27
2023-05-09T12:43:50.716Z,35.40
2023-05-09T12:46:20.219Z,2.00
2023-05-09T12:48:49.541Z,1.38
2023-05-09T12:51:21.824Z,2.17
2023-05-09T12:53:49.888Z,1.40
2023-05-09T12:56:19.557Z,1.70
2023-05-09T12:58:52.345Z,1.60
2023-05-09T13:01:21.456Z,1.83
2023-05-09T13:03:53.858Z,1.60
2023-05-09T13:06:21.873Z,1.48
2023-05-09T13:08:59.036Z,1.70
2023-05-09T13:11:27.628Z,1.40
2023-05-09T13:13:56.133Z,1.40
2023-05-09T13:16:24.216Z,1.80
2023-05-09T13:18:52.241Z,1.70
2023-05-09T13:21:20.353Z,1.27
2023-05-09T13:23:50.313Z,1.60
2023-05-09T13:26:18.214Z,1.27
2023-05-09T13:28:46.080Z,1.50
2023-05-09T13:31:14.030Z,1.50
2023-05-09T13:33:41.965Z,1.63
2023-05-09T13:36:09.867Z,1.48
2023-05-09T13:38:40.638Z,1.55
2023-05-09T13:41:08.848Z,1.92
2023-05-09T13:43:37.364Z,1.38
2023-05-09T13:46:05.521Z,1.60
2023-05-09T13:48:33.527Z,1.60
2023-05-09T13:51:01.572Z,1.50
2023-05-09T13:53:29.622Z,1.40
2023-05-09T13:55:57.853Z,1.50
2023-05-09T13:58:25.768Z,1.55
2023-05-09T14:00:53.744Z,1.60
2023-05-09T14:03:21.717Z,1.80
2023-05-09T14:05:49.624Z,1.75
2023-05-09T14:08:18.050Z,1.90
2023-05-09T14:10:45.868Z,2.67
2023-05-09T14:13:15.800Z,1.75
2023-05-09T14:15:43.695Z,1.77
2023-05-09T14:18:15.942Z,1.40
2023-05-09T14:20:46.021Z,1.45
2023-05-09T14:23:13.846Z,1.40
2023-05-09T14:25:44.966Z,1.60
2023-05-09T14:28:13.065Z,1.25
2023-05-09T14:30:42.105Z,3.00
2023-05-09T14:33:32.138Z,1.60
2023-05-09T14:36:06.800Z,1.83
2023-05-09T14:38:44.565Z,2.00
2023-05-09T14:41:38.189Z,1.80
2023-05-09T14:44:13.269Z,1.95
2023-05-09T14:46:46.214Z,2.00
2023-05-09T14:49:16.636Z,1.80
2023-05-09T14:51:44.958Z,1.60
2023-05-09T14:54:13.650Z,1.60
2023-05-09T14:56:47.583Z,1.50
2023-05-09T14:59:16.584Z,1.70
2023-05-09T15:01:46.536Z,1.55
2023-05-09T15:04:15.341Z,1.40
2023-05-09T15:06:44.043Z,1.77
2023-05-09T15:09:16.304Z,1.70
2023-05-09T15:11:48.830Z,1.70
2023-05-09T15:14:18.220Z,2.30
2023-05-09T15:16:48.979Z,1.88
2023-05-09T15:19:26.542Z,1.98
2023-05-09T15:22:09.036Z,2.20
2023-05-09T15:24:44.403Z,1.70
2023-05-09T15:27:17.809Z,2.30
2023-05-09T15:29:49.181Z,1.80
2023-05-09T15:32:26.132Z,1.50
2023-05-09T15:35:06.787Z,1.92
2023-05-09T15:37:38.801Z,1.70
2023-05-09T15:40:13.985Z,2.05
2023-05-09T15:42:42.198Z,2.00
2023-05-09T15:45:10.314Z,1.90
2023-05-09T15:47:38.137Z,2.53
2023-05-09T15:50:06.478Z,2.00
2023-05-09T15:52:34.393Z,1.90
2023-05-09T15:55:02.363Z,2.30
2023-05-09T15:57:32.043Z,2.00
2023-05-09T15:59:59.837Z,2.20
2023-05-09T16:02:28.673Z,2.03
2023-05-09T16:04:56.641Z,2.00
2023-05-09T16:07:26.949Z,2.20
2023-05-09T16:09:55.041Z,2.10
2023-05-09T16:12:22.875Z,1.77
2023-05-09T16:14:50.611Z,2.58
2023-05-09T16:17:18.563Z,2.60
2023-05-09T16:19:46.446Z,2.97
2023-05-09T16:22:14.384Z,2.80
2023-05-09T16:24:42.125Z,2.72
2023-05-09T16:27:09.879Z,2.40
2023-05-09T16:29:37.663Z,2.83
2023-05-09T16:32:05.919Z,2.17
2023-05-09T16:34:34.106Z,2.17
2023-05-09T16:37:05.199Z,3.45
2023-05-09T16:39:32.985Z,10.32
2023-05-09T16:42:00.835Z,9.65
2023-05-09T16:44:28.725Z,2.55
2023-05-09T16:46:56.599Z,2.50
2023-05-09T16:49:24.725Z,2.80
2023-05-09T16:51:52.728Z,2.97
2023-05-09T16:54:20.591Z,3.35
2023-05-09T16:56:49.836Z,3.42
2023-05-09T16:59:21.886Z,3.20
2023-05-09T17:01:49.892Z,3.60
2023-05-09T17:04:17.772Z,2.80
2023-05-09T17:06:45.868Z,2.70
2023-05-09T17:09:13.867Z,2.80
2023-05-09T17:11:44.704Z,3.60
2023-05-09T17:14:12.424Z,2.88
2023-05-09T17:16:40.506Z,3.65
2023-05-09T17:19:08.338Z,4.15
2023-05-09T17:21:37.976Z,3.53
2023-05-09T17:24:06.079Z,4.10
2023-05-09T17:26:33.895Z,3.40
2023-05-09T17:29:03.800Z,3.88
2023-05-09T17:31:32.319Z,4.97
2023-05-09T17:34:01.572Z,5.35
2023-05-09T17:36:29.933Z,3.63
2023-05-09T17:38:57.767Z,4.28
2023-05-09T17:41:25.572Z,4.70
2023-05-09T17:43:56.553Z,5.03
2023-05-09T17:46:24.815Z,5.22
2023-05-09T17:48:52.701Z,6.53
2023-05-09T17:51:21.167Z,4.68
2023-05-09T17:53:49.119Z,4.72
2023-05-09T17:56:16.997Z,4.85
2023-05-09T17:58:45.471Z,4.47
2023-05-09T18:01:13.623Z,4.57
2023-05-09T18:03:41.692Z,5.05
2023-05-09T18:06:09.747Z,6.57
2023-05-09T18:08:37.642Z,7.82
2023-05-09T18:11:05.647Z,6.07
2023-05-09T18:13:36.900Z,7.43
2023-05-09T18:16:04.949Z,7.22
2023-05-09T18:18:32.843Z,6.40
2023-05-09T18:21:01.013Z,6.53
2023-05-09T18:23:32.147Z,6.47
2023-05-09T18:26:01.885Z,5.50
2023-05-09T18:28:30.081Z,5.25
2023-05-09T18:30:59.392Z,6.28
2023-05-09T18:33:28.819Z,13.00
2023-05-09T18:35:56.933Z,6.00
2023-05-09T18:38:24.987Z,5.72
2023-05-09T18:40:53.015Z,7.40
2023-05-09T18:43:23.501Z,6.47
2023-05-09T18:45:57.627Z,6.78
2023-05-09T18:48:25.983Z,7.63
2023-05-09T18:50:53.946Z,6.95
2023-05-09T18:53:21.884Z,6.03
2023-05-09T18:55:49.757Z,9.07
2023-05-09T18:58:18.807Z,8.75
2023-05-09T19:00:47.139Z,7.95
2023-05-09T19:03:15.126Z,29.98
2023-05-09T19:05:45.162Z,10.90
2023-05-09T19:08:13.215Z,8.30
2023-05-09T19:10:41.469Z,8.65
2023-05-09T19:13:09.784Z,9.23
2023-05-09T19:15:38.036Z,8.45
2023-05-09T19:18:06.018Z,9.57
2023-05-09T19:20:37.111Z,8.68
2023-05-09T19:23:05.203Z,9.43
2023-05-09T19:25:34.115Z,9.50
2023-05-09T19:28:01.927Z,8.88
2023-05-09T19:30:29.789Z,9.77
2023-05-09T19:32:57.800Z,9.73
2023-05-09T19:35:25.884Z,8.75
2023-05-09T19:37:53.758Z,8.23
2023-05-09T19:40:24.281Z,8.90
2023-05-09T19:42:55.168Z,9.27
2023-05-09T19:45:23.169Z,9.57
2023-05-09T19:47:51.018Z,10.07
2023-05-09T19:50:19.905Z,9.35
2023-05-09T19:52:50.046Z,10.65
2023-05-09T19:55:20.173Z,9.67
2023-05-09T19:57:48.674Z,10.13
2023-05-09T20:00:17.610Z,10.65
2023-05-09T20:02:47.213Z,11.23
2023-05-09T20:05:15.104Z,10.95
2023-05-09T20:07:42.973Z,10.85
2023-05-09T20:10:13.032Z,10.43
2023-05-09T20:12:41.478Z,11.68
2023-05-09T20:15:09.721Z,11.02
2023-05-09T20:17:37.507Z,10.00
2023-05-09T20:20:06.171Z,10.23
2023-05-09T20:22:34.036Z,10.02
2023-05-09T20:25:01.998Z,9.88
2023-05-09T20:27:34.599Z,10.75
2023-05-09T20:30:04.038Z,10.07
2023-05-09T20:32:33.180Z,8.93
2023-05-09T20:35:01.046Z,9.80
2023-05-09T20:37:29.149Z,11.38
2023-05-09T20:39:57.000Z,10.90
2023-05-09T20:42:25.816Z,9.52
2023-05-09T20:44:54.980Z,8.93
2023-05-09T20:47:22.997Z,8.82
2023-05-09T20:49:50.935Z,8.57
2023-05-09T20:52:18.732Z,9.10
2023-05-09T20:54:47.411Z,8.63
2023-05-09T20:57:15.447Z,8.85
2023-05-09T20:59:44.295Z,9.20
2023-05-09T21:02:12.284Z,8.45
2023-05-09T21:04:40.118Z,8.00
2023-05-09T21:07:10.105Z,8.13
2023-05-09T21:09:38.061Z,7.82
2023-05-09T21:12:06.168Z,8.93
2023-05-09T21:14:34.034Z,8.27
2023-05-09T21:17:01.841Z,10.82
2023-05-09T21:19:29.848Z,9.80
2023-05-09T21:21:58.814Z,10.45
2023-05-09T21:24:29.123Z,8.00
2023-05-09T21:26:57.226Z,10.52
2023-05-09T21:29:24.957Z,7.90
2023-05-09T21:31:53.045Z,7.53
2023-05-09T21:34:21.628Z,8.57
2023-05-09T21:36:49.422Z,8.50
2023-05-09T21:39:17.407Z,7.65
2023-05-09T21:41:45.155Z,7.80
2023-05-09T21:44:13.186Z,7.30
2023-05-09T21:46:41.497Z,7.90
2023-05-09T21:49:09.415Z,7.93
2023-05-09T21:51:37.153Z,8.75
2023-05-09T21:54:05.135Z,8.32
2023-05-09T21:56:32.906Z,7.88
2023-05-09T21:59:00.646Z,8.90
2023-05-09T22:01:28.883Z,8.32
2023-05-09T22:03:56.919Z,7.95
2023-05-09T22:06:24.722Z,7.72
2023-05-09T22:08:52.681Z,8.50
2023-05-09T22:11:20.832Z,7.97
2023-05-09T22:13:48.765Z,8.65
2023-05-09T22:16:17.689Z,7.47
2023-05-09T22:18:45.494Z,6.20
2023-05-09T22:21:13.367Z,7.25
2023-05-09T22:23:41.199Z,6.85
2023-05-09T22:26:09.110Z,5.50
2023-05-09T22:28:37.314Z,6.70
2023-05-09T22:31:08.437Z,6.00
2023-05-09T22:33:36.412Z,6.50
2023-05-09T22:36:05.125Z,6.30
2023-05-09T22:38:33.253Z,7.78
2023-05-09T22:41:01.222Z,7.38
2023-05-09T22:43:38.331Z,6.80
2023-05-09T22:46:07.394Z,6.50
2023-05-09T22:48:35.169Z,6.82
2023-05-09T22:51:03.484Z,6.53
2023-05-09T22:53:31.522Z,5.75
2023-05-09T22:55:59.327Z,6.78
2023-05-09T22:58:27.328Z,6.85
2023-05-09T23:00:55.120Z,6.53
2023-05-09T23:03:23.197Z,5.35
2023-05-09T23:05:51.682Z,5.57
2023-05-09T23:08:19.383Z,5.47
2023-05-09T23:10:47.329Z,5.32
2023-05-09T23:13:15.187Z,5.28
2023-05-09T23:15:43.039Z,5.00
2023-05-09T23:18:10.876Z,4.97
2023-05-09T23:20:38.634Z,6.30
2023-05-09T23:23:06.561Z,5.38
2023-05-09T23:25:34.455Z,5.60
2023-05-09T23:28:02.767Z,5.35
2023-05-09T23:30:30.778Z,5.82
2023-05-09T23:32:58.589Z,4.85
2023-05-09T23:35:27.018Z,4.55
2023-05-09T23:37:54.877Z,4.43
2023-05-09T23:40:22.788Z,5.05
2023-05-09T23:42:50.618Z,4.32
2023-05-09T23:45:18.827Z,4.72
2023-05-09T23:47:46.819Z,4.97
2023-05-09T23:50:14.883Z,5.05
2023-05-09T23:52:42.801Z,4.20
2023-05-09T23:55:10.702Z,4.75
2023-05-09T23:57:38.566Z,5.22
